createdAt,value
2019-05-20T00:00:50.117Z,13.47
2019-05-20T00:03:17.159Z,14.73
2019-05-20T00:05:44.606Z,17.97
2019-05-20T00:08:12.356Z,14.47
2019-05-20T00:10:40.102Z,14.60
2019-05-20T00:13:07.927Z,14.47
2019-05-20T00:15:34.986Z,14.40
2019-05-20T00:18:02.451Z,18.17
2019-05-20T00:20:29.769Z,15.50
2019-05-20T00:22:57.660Z,17.20
2019-05-20T00:25:25.726Z,16.83
2019-05-20T00:27:53.351Z,16.30
2019-05-20T00:30:20.719Z,16.97
2019-05-20T00:32:48.696Z,27.73
2019-05-20T00:35:16.391Z,15.23
2019-05-20T00:37:43.795Z,16.07
2019-05-20T00:40:11.771Z,17.50
2019-05-20T00:42:38.980Z,16.90
2019-05-20T00:45:06.596Z,18.40
2019-05-20T00:47:34.138Z,17.60
2019-05-20T00:50:02.420Z,17.03
2019-05-20T00:52:30.692Z,20.87
2019-05-20T00:54:58.397Z,19.30
2019-05-20T00:57:26.152Z,17.20
2019-05-20T00:59:54.103Z,15.07
2019-05-20T01:02:21.460Z,15.87
2019-05-20T01:04:48.489Z,18.27
2019-05-20T01:07:15.890Z,18.37
2019-05-20T01:09:43.205Z,16.87
2019-05-20T01:12:10.616Z,19.17
2019-05-20T01:14:39.154Z,21.33
2019-05-20T01:17:06.578Z,18.80
2019-05-20T01:19:33.585Z,17.70
2019-05-20T01:22:01.258Z,17.80
2019-05-20T01:24:29.032Z,22.20
2019-05-20T01:26:56.072Z,19.40
2019-05-20T01:29:23.429Z,20.33
2019-05-20T01:31:51.092Z,20.40
2019-05-20T01:34:18.806Z,20.00
2019-05-20T01:36:47.074Z,22.60
2019-05-20T01:39:15.037Z,17.63
2019-05-20T01:41:43.563Z,21.60
2019-05-20T01:44:11.155Z,18.03
2019-05-20T01:46:39.680Z,21.13
2019-05-20T01:49:07.263Z,19.43
2019-05-20T01:51:34.994Z,25.03
2019-05-20T01:54:02.061Z,22.50
2019-05-20T01:56:29.449Z,25.30
2019-05-20T01:58:57.050Z,24.60
2019-05-20T02:01:25.181Z,26.93
2019-05-20T02:03:53.252Z,25.53
2019-05-20T02:06:21.014Z,25.67
2019-05-20T02:08:49.623Z,22.63
2019-05-20T02:11:18.224Z,27.33
2019-05-20T02:13:58.636Z,25.00
2019-05-20T02:16:26.114Z,29.93
2019-05-20T02:18:53.330Z,24.60
2019-05-20T02:21:21.857Z,24.20
2019-05-20T02:23:50.116Z,25.30
2019-05-20T02:26:17.238Z,25.03
2019-05-20T02:28:45.570Z,31.40
2019-05-20T02:31:12.991Z,28.63
2019-05-20T02:33:51.739Z,26.43
2019-05-20T02:36:11.001Z,27.27
2019-05-20T02:38:39.385Z,25.57
2019-05-20T02:41:06.439Z,25.30
2019-05-20T02:43:33.747Z,23.30
2019-05-20T02:46:00.753Z,27.57
2019-05-20T02:48:28.123Z,28.10
2019-05-20T02:50:56.263Z,27.07
2019-05-20T02:53:23.700Z,28.00
2019-05-20T02:55:51.134Z,26.00
2019-05-20T02:58:19.185Z,31.43
2019-05-20T03:00:47.241Z,28.97
2019-05-20T03:03:15.014Z,32.73
2019-05-20T03:05:43.117Z,26.67
2019-05-20T03:08:11.685Z,38.67
2019-05-20T03:10:39.457Z,29.00
2019-05-20T03:13:07.382Z,27.20
2019-05-20T03:15:34.799Z,33.93
2019-05-20T03:18:02.216Z,27.27
2019-05-20T03:20:30.192Z,26.13
2019-05-20T03:22:57.811Z,24.73
2019-05-20T03:25:25.495Z,27.50
2019-05-20T03:27:53.177Z,26.60
2019-05-20T03:30:20.339Z,30.47
2019-05-20T03:32:47.447Z,25.20
2019-05-20T03:35:17.093Z,28.30
2019-05-20T03:37:45.865Z,36.23
2019-05-20T03:40:13.432Z,30.53
2019-05-20T03:42:40.799Z,28.43
2019-05-20T03:45:09.079Z,33.03
2019-05-20T03:47:38.320Z,35.30
2019-05-20T03:50:06.679Z,32.63
2019-05-20T03:52:35.135Z,33.40
2019-05-20T03:55:02.312Z,41.20
2019-05-20T03:57:29.772Z,32.07
2019-05-20T03:59:57.155Z,39.97
2019-05-20T04:02:24.234Z,35.87
2019-05-20T04:05:01.919Z,32.37
2019-05-20T04:07:21.490Z,34.83
2019-05-20T04:09:49.583Z,38.10
2019-05-20T04:12:17.596Z,36.53
2019-05-20T04:14:45.437Z,38.40
2019-05-20T04:17:13.580Z,35.80
2019-05-20T04:19:41.269Z,37.53
2019-05-20T04:22:08.778Z,36.37
2019-05-20T04:24:35.870Z,36.17
2019-05-20T04:27:03.219Z,39.13
2019-05-20T04:29:31.349Z,43.87
2019-05-20T04:32:00.377Z,36.87
2019-05-20T04:34:28.045Z,40.67
2019-05-20T04:36:57.035Z,37.57
2019-05-20T04:39:25.244Z,33.87
2019-05-20T04:41:54.074Z,39.13
2019-05-20T04:44:22.133Z,36.37
2019-05-20T04:46:49.973Z,40.50
2019-05-20T04:49:17.472Z,37.70
2019-05-20T04:51:44.525Z,37.03
2019-05-20T04:54:12.213Z,38.67
2019-05-20T04:56:39.656Z,42.00
2019-05-20T04:59:07.008Z,38.83
2019-05-20T05:01:34.135Z,43.07
2019-05-20T05:04:02.194Z,40.57
2019-05-20T05:06:32.824Z,41.90
2019-05-20T05:09:01.307Z,42.10
2019-05-20T05:11:28.863Z,40.97
2019-05-20T05:13:56.506Z,43.67
2019-05-20T05:16:24.495Z,43.07
2019-05-20T05:18:52.099Z,51.30
2019-05-20T05:21:19.581Z,48.40
2019-05-20T05:23:58.886Z,51.03
2019-05-20T05:26:17.380Z,50.30
2019-05-20T05:28:45.465Z,51.07
2019-05-20T05:31:12.789Z,47.57
2019-05-20T05:33:41.003Z,48.17
2019-05-20T05:36:08.083Z,49.90
2019-05-20T05:38:35.961Z,47.63
2019-05-20T05:41:03.965Z,50.17
2019-05-20T05:43:32.477Z,52.33
2019-05-20T05:46:00.884Z,52.27
2019-05-20T05:48:28.287Z,61.03
2019-05-20T05:50:55.964Z,53.53
2019-05-20T05:53:23.293Z,52.30
2019-05-20T05:55:50.325Z,55.77
2019-05-20T05:58:17.800Z,54.13
2019-05-20T06:00:45.145Z,55.33
2019-05-20T06:03:12.230Z,49.97
2019-05-20T06:05:39.684Z,56.93
2019-05-20T06:08:09.645Z,53.50
2019-05-20T06:10:37.043Z,54.33
2019-05-20T06:13:05.185Z,59.50
2019-05-20T06:15:33.435Z,61.20
2019-05-20T06:18:01.554Z,62.87
2019-05-20T06:20:29.013Z,66.20
2019-05-20T06:22:57.130Z,58.73
2019-05-20T06:25:24.202Z,74.10
2019-05-20T06:27:52.259Z,65.13
2019-05-20T06:30:21.675Z,69.13
2019-05-20T06:32:49.468Z,78.73
2019-05-20T06:35:17.582Z,70.80
2019-05-20T06:37:50.422Z,70.50
2019-05-20T06:40:20.502Z,66.73
2019-05-20T06:42:48.135Z,71.23
2019-05-20T06:45:15.249Z,80.00
2019-05-20T06:47:42.660Z,86.20
2019-05-20T06:50:10.441Z,84.57
2019-05-20T06:52:37.957Z,75.83
2019-05-20T06:55:06.511Z,67.60
2019-05-20T06:57:33.998Z,87.80
2019-05-20T07:00:02.877Z,77.27
2019-05-20T07:02:30.009Z,79.40
2019-05-20T07:04:57.413Z,72.30
2019-05-20T07:07:24.920Z,73.87
2019-05-20T07:09:52.269Z,80.07
2019-05-20T07:12:20.175Z,72.97
2019-05-20T07:14:47.483Z,68.37
2019-05-20T07:17:14.561Z,67.27
2019-05-20T07:19:42.447Z,73.80
2019-05-20T07:22:10.740Z,79.07
2019-05-20T07:24:38.274Z,73.33
2019-05-20T07:27:05.953Z,81.80
2019-05-20T07:29:33.905Z,64.93
2019-05-20T07:32:01.735Z,74.40
2019-05-20T07:34:28.834Z,82.47
2019-05-20T07:37:03.747Z,61.73
2019-05-20T07:39:30.514Z,70.83
2019-05-20T07:41:57.978Z,67.90
2019-05-20T07:44:25.819Z,77.93
2019-05-20T07:46:52.936Z,70.93
2019-05-20T07:49:23.289Z,67.00
2019-05-20T07:51:52.243Z,68.40
2019-05-20T07:54:20.151Z,63.67
2019-05-20T07:56:49.577Z,70.63
2019-05-20T07:59:20.033Z,63.70
2019-05-20T08:01:47.384Z,69.20
2019-05-20T08:04:15.346Z,65.00
2019-05-20T08:06:43.395Z,63.60
2019-05-20T08:09:10.799Z,64.80
2019-05-20T08:11:38.026Z,72.70
2019-05-20T08:14:05.967Z,66.87
2019-05-20T08:16:33.608Z,63.13
2019-05-20T08:19:00.990Z,61.33
2019-05-20T08:21:28.852Z,66.27
2019-05-20T08:23:57.115Z,64.70
2019-05-20T08:26:24.907Z,69.10
2019-05-20T08:28:52.945Z,64.13
2019-05-20T08:31:20.378Z,72.80
2019-05-20T08:33:47.864Z,65.80
2019-05-20T08:36:15.375Z,60.67
2019-05-20T08:38:42.811Z,64.37
2019-05-20T08:41:10.973Z,62.20
2019-05-20T08:43:38.499Z,57.70
2019-05-20T08:46:05.767Z,56.93
2019-05-20T08:48:32.873Z,63.07
2019-05-20T08:51:00.300Z,68.23
2019-05-20T08:53:27.788Z,72.80
2019-05-20T08:55:55.612Z,63.07
2019-05-20T08:58:23.674Z,62.47
2019-05-20T09:00:51.431Z,71.27
2019-05-20T09:03:19.223Z,66.57
2019-05-20T09:05:46.963Z,64.33
2019-05-20T09:08:14.461Z,61.83
2019-05-20T09:10:42.769Z,56.93
2019-05-20T09:13:10.204Z,63.17
2019-05-20T09:15:37.412Z,73.00
2019-05-20T09:18:04.853Z,63.13
2019-05-20T09:20:32.316Z,71.43
2019-05-20T09:23:02.625Z,65.87
2019-05-20T09:25:30.193Z,60.67
2019-05-20T09:27:58.695Z,65.70
2019-05-20T09:30:26.036Z,72.23
2019-05-20T09:32:53.649Z,74.53
2019-05-20T09:35:21.227Z,71.83
2019-05-20T09:37:48.228Z,67.47
2019-05-20T09:40:29.416Z,72.03
2019-05-20T09:42:57.166Z,69.07
2019-05-20T09:45:24.486Z,62.80
2019-05-20T09:47:52.048Z,69.53
2019-05-20T09:50:19.106Z,63.93
2019-05-20T09:52:46.559Z,65.90
2019-05-20T09:55:13.699Z,66.07
2019-05-20T09:57:41.091Z,67.30
2019-05-20T10:00:10.092Z,66.80
2019-05-20T10:02:38.554Z,68.17
2019-05-20T10:05:07.291Z,64.13
2019-05-20T10:07:35.214Z,67.83
2019-05-20T10:10:05.211Z,59.50
2019-05-20T10:12:45.232Z,62.50
2019-05-20T10:15:03.886Z,61.33
2019-05-20T10:17:31.451Z,58.30
2019-05-20T10:19:59.565Z,59.27
2019-05-20T10:22:26.962Z,64.50
2019-05-20T10:24:54.308Z,59.80
2019-05-20T10:27:21.628Z,72.07
2019-05-20T10:29:49.786Z,62.57
2019-05-20T10:32:17.733Z,63.93
2019-05-20T10:34:44.921Z,66.33
2019-05-20T10:37:12.258Z,65.10
2019-05-20T10:39:41.071Z,62.03
2019-05-20T10:42:08.401Z,63.13
2019-05-20T10:44:35.893Z,64.07
2019-05-20T10:47:06.542Z,65.90
2019-05-20T10:49:34.292Z,62.97
2019-05-20T10:52:04.015Z,63.70
2019-05-20T10:54:31.107Z,61.50
2019-05-20T10:56:59.769Z,66.80
2019-05-20T10:59:27.699Z,71.13
2019-05-20T11:01:55.166Z,63.37
2019-05-20T11:04:22.544Z,60.77
2019-05-20T11:06:49.587Z,62.57
2019-05-20T11:09:17.434Z,64.40
2019-05-20T11:11:44.467Z,60.20
2019-05-20T11:14:12.353Z,56.40
2019-05-20T11:16:40.193Z,62.00
2019-05-20T11:19:07.680Z,58.30
2019-05-20T11:21:34.741Z,56.37
2019-05-20T11:24:01.806Z,59.67
2019-05-20T11:26:29.135Z,55.03
2019-05-20T11:28:56.926Z,61.10
2019-05-20T11:31:24.607Z,66.50
2019-05-20T11:33:52.530Z,62.10
2019-05-20T11:36:20.349Z,64.00
2019-05-20T11:38:48.149Z,66.30
2019-05-20T11:41:15.513Z,65.17
2019-05-20T11:43:42.889Z,61.47
2019-05-20T11:46:10.366Z,58.50
2019-05-20T11:48:37.418Z,67.77
2019-05-20T11:51:04.507Z,65.87
2019-05-20T11:53:32.252Z,68.83
2019-05-20T11:55:59.331Z,70.17
2019-05-20T11:58:26.399Z,63.97
2019-05-20T12:00:54.274Z,64.40
2019-05-20T12:03:21.831Z,63.80
2019-05-20T12:05:48.868Z,64.67
2019-05-20T12:08:16.572Z,70.20
2019-05-20T12:10:43.876Z,67.70
2019-05-20T12:13:11.758Z,64.80
2019-05-20T12:15:39.758Z,67.70
2019-05-20T12:18:06.891Z,67.90
2019-05-20T12:20:35.862Z,66.20
2019-05-20T12:23:02.933Z,63.33
2019-05-20T12:25:30.766Z,66.60
2019-05-20T12:27:58.649Z,63.90
2019-05-20T12:30:25.716Z,72.77
2019-05-20T12:33:15.591Z,73.43
2019-05-20T12:35:22.329Z,65.27
2019-05-20T12:37:49.693Z,71.67
2019-05-20T12:40:17.212Z,70.47
2019-05-20T12:42:44.867Z,78.13
2019-05-20T12:45:12.376Z,73.93
2019-05-20T12:47:39.831Z,74.13
2019-05-20T12:50:07.948Z,70.03
2019-05-20T12:52:35.209Z,75.73
2019-05-20T12:55:07.861Z,72.17
2019-05-20T12:57:31.906Z,80.57
2019-05-20T12:59:59.396Z,83.17
2019-05-20T13:02:27.471Z,79.83
2019-05-20T13:04:54.589Z,73.40
2019-05-20T13:07:22.092Z,75.70
2019-05-20T13:09:52.184Z,89.67
2019-05-20T13:12:19.715Z,77.47
2019-05-20T13:14:46.796Z,86.03
2019-05-20T13:17:14.298Z,80.40
2019-05-20T13:19:43.053Z,79.50
2019-05-20T13:22:10.929Z,76.73
2019-05-20T13:24:38.513Z,82.37
2019-05-20T13:27:06.632Z,81.80
2019-05-20T13:29:34.082Z,79.20
2019-05-20T13:32:01.122Z,78.77
2019-05-20T13:34:28.805Z,78.97
2019-05-20T13:36:56.970Z,87.27
2019-05-20T13:39:24.714Z,81.50
2019-05-20T13:41:52.485Z,93.47
2019-05-20T13:44:19.842Z,76.70
2019-05-20T13:46:47.480Z,87.80
2019-05-20T13:49:14.626Z,85.63
2019-05-20T13:51:42.141Z,85.67
2019-05-20T13:54:09.590Z,78.00
2019-05-20T13:56:37.087Z,74.03
2019-05-20T13:59:04.525Z,82.83
2019-05-20T14:01:31.874Z,76.90
2019-05-20T14:03:59.616Z,72.90
2019-05-20T14:06:26.659Z,74.20
2019-05-20T14:08:53.714Z,74.10
2019-05-20T14:11:33.891Z,67.30
2019-05-20T14:13:50.556Z,73.53
2019-05-20T14:16:18.426Z,66.90
2019-05-20T14:18:45.781Z,68.57
2019-05-20T14:21:13.508Z,65.47
2019-05-20T14:23:40.566Z,68.57
2019-05-20T14:26:07.601Z,64.10
2019-05-20T14:28:35.398Z,70.63
2019-05-20T14:31:05.930Z,76.30
2019-05-20T14:34:14.518Z,77.67
2019-05-20T14:36:54.300Z,76.17
2019-05-20T14:39:21.775Z,73.37
2019-05-20T14:41:49.417Z,71.13
2019-05-20T14:44:17.234Z,73.80
2019-05-20T14:46:45.042Z,72.20
2019-05-20T14:49:12.767Z,76.30
2019-05-20T14:51:41.005Z,75.87
2019-05-20T14:54:08.366Z,75.30
2019-05-20T14:56:36.396Z,75.90
2019-05-20T14:59:04.180Z,71.13
2019-05-20T15:01:32.051Z,76.03
2019-05-20T15:03:59.138Z,73.67
2019-05-20T15:06:26.918Z,72.03
2019-05-20T15:08:54.334Z,74.10
2019-05-20T15:11:35.637Z,74.30
2019-05-20T15:13:51.096Z,82.97
2019-05-20T15:16:18.492Z,75.60
2019-05-20T15:18:45.639Z,73.67
2019-05-20T15:21:13.124Z,71.70
2019-05-20T15:23:40.511Z,69.43
2019-05-20T15:26:07.520Z,71.57
2019-05-20T15:28:35.126Z,75.30
2019-05-20T15:31:02.778Z,71.77
2019-05-20T15:33:30.543Z,71.30
2019-05-20T15:35:57.883Z,70.23
2019-05-20T15:38:25.656Z,77.63
2019-05-20T15:40:53.220Z,70.73
2019-05-20T15:43:22.949Z,76.60
2019-05-20T15:45:50.792Z,65.40
2019-05-20T15:48:19.025Z,70.03
2019-05-20T15:50:46.479Z,68.77
2019-05-20T15:53:13.655Z,74.23
2019-05-20T15:55:41.038Z,69.60
2019-05-20T15:58:08.172Z,65.23
2019-05-20T16:00:35.543Z,65.03
2019-05-20T16:03:02.665Z,68.27
2019-05-20T16:05:30.727Z,68.50
2019-05-20T16:08:10.216Z,67.77
2019-05-20T16:11:10.132Z,70.10
2019-05-20T16:14:07.174Z,78.80
2019-05-20T16:17:04.425Z,62.47
2019-05-20T16:20:08.461Z,66.77
2019-05-20T16:23:08.593Z,61.73
2019-05-20T16:26:06.593Z,59.37
2019-05-20T16:28:35.125Z,60.50
2019-05-20T16:31:02.777Z,63.77
2019-05-20T16:33:31.369Z,59.27
2019-05-20T16:35:59.034Z,66.30
2019-05-20T16:38:39.413Z,54.77
2019-05-20T16:41:07.060Z,57.33
2019-05-20T16:43:42.959Z,59.70
2019-05-20T16:46:10.186Z,56.27
2019-05-20T16:48:38.336Z,64.07
2019-05-20T16:51:06.775Z,61.30
2019-05-20T16:53:38.607Z,55.33
2019-05-20T16:56:11.274Z,56.27
2019-05-20T16:58:39.875Z,59.67
2019-05-20T17:01:10.038Z,57.50
2019-05-20T17:03:40.782Z,62.20
2019-05-20T17:06:12.890Z,60.03
2019-05-20T17:08:43.138Z,56.70
2019-05-20T17:11:33.770Z,62.70
2019-05-20T17:14:30.007Z,61.43
2019-05-20T17:16:57.439Z,60.13
2019-05-20T17:19:30.437Z,59.90
2019-05-20T17:21:57.838Z,57.87
2019-05-20T17:24:24.839Z,58.37
2019-05-20T17:26:52.639Z,59.27
2019-05-20T17:29:20.522Z,57.57
2019-05-20T17:31:48.268Z,56.53
2019-05-20T17:34:15.942Z,59.67
2019-05-20T17:39:21.164Z,55.57
2019-05-20T17:41:49.427Z,59.70
2019-05-20T17:44:16.520Z,60.33
2019-05-20T17:46:43.909Z,56.20
2019-05-20T17:49:11.325Z,57.23
2019-05-20T17:51:38.681Z,55.27
2019-05-20T17:54:06.899Z,53.23
2019-05-20T17:56:34.404Z,53.17
2019-05-20T17:59:03.905Z,59.30
2019-05-20T18:01:31.239Z,59.00
2019-05-20T18:03:59.647Z,55.40
2019-05-20T18:06:27.410Z,54.80
2019-05-20T18:08:56.820Z,51.70
2019-05-20T18:11:24.236Z,52.63
2019-05-20T18:13:51.754Z,51.83
2019-05-20T18:16:19.628Z,52.80
2019-05-20T18:18:46.970Z,52.93
2019-05-20T18:21:14.918Z,53.40
2019-05-20T18:23:45.419Z,54.00
2019-05-20T18:26:13.486Z,51.27
2019-05-20T18:28:40.783Z,51.67
2019-05-20T18:31:07.825Z,60.30
2019-05-20T18:33:35.708Z,51.37
2019-05-20T18:36:03.509Z,51.27
2019-05-20T18:38:31.758Z,53.17
2019-05-20T18:40:59.761Z,50.87
2019-05-20T18:43:27.570Z,48.00
2019-05-20T18:45:55.436Z,55.73
2019-05-20T18:48:24.221Z,54.20
2019-05-20T18:50:51.977Z,51.50
2019-05-20T18:53:19.762Z,49.60
2019-05-20T18:55:47.436Z,49.27
2019-05-20T18:58:15.326Z,55.77
2019-05-20T19:00:42.850Z,49.07
2019-05-20T19:03:10.303Z,50.70
2019-05-20T19:05:38.281Z,50.83
2019-05-20T19:08:05.583Z,50.40
2019-05-20T19:10:33.301Z,48.53
2019-05-20T19:13:00.901Z,49.97
2019-05-20T19:15:28.714Z,49.00
2019-05-20T19:17:56.153Z,48.80
2019-05-20T19:20:23.341Z,50.67
2019-05-20T19:22:51.031Z,48.20
2019-05-20T19:25:19.163Z,48.33
2019-05-20T19:27:47.563Z,53.00
2019-05-20T19:30:15.707Z,44.53
2019-05-20T19:32:42.917Z,50.10
2019-05-20T19:35:10.512Z,46.27
2019-05-20T19:37:38.017Z,54.93
2019-05-20T19:40:06.872Z,49.50
2019-05-20T19:42:35.205Z,48.00
2019-05-20T19:45:02.356Z,47.37
2019-05-20T19:47:30.158Z,43.37
2019-05-20T19:49:57.782Z,43.07
2019-05-20T19:52:26.003Z,46.07
2019-05-20T19:54:53.640Z,47.50
2019-05-20T19:57:21.318Z,49.93
2019-05-20T19:59:49.319Z,51.17
2019-05-20T20:02:18.072Z,47.90
2019-05-20T20:04:45.568Z,44.67
2019-05-20T20:07:12.972Z,47.57
2019-05-20T20:09:40.023Z,49.53
2019-05-20T20:12:08.307Z,53.13
2019-05-20T20:14:35.711Z,52.23
2019-05-20T20:17:02.973Z,54.87
2019-05-20T20:19:30.392Z,55.37
2019-05-20T20:21:57.774Z,51.33
2019-05-20T20:24:25.616Z,51.00
2019-05-20T20:26:52.613Z,53.07
2019-05-20T20:29:20.036Z,51.20
2019-05-20T20:31:47.451Z,49.80
2019-05-20T20:34:15.235Z,54.73
2019-05-20T20:36:42.431Z,56.53
2019-05-20T20:39:10.339Z,56.27
2019-05-20T20:41:37.441Z,49.30
2019-05-20T20:44:05.106Z,53.87
2019-05-20T20:46:32.431Z,44.97
2019-05-20T20:49:00.784Z,47.80
2019-05-20T20:51:27.911Z,45.73
2019-05-20T20:53:55.279Z,49.40
2019-05-20T20:56:25.447Z,45.03
2019-05-20T20:58:52.957Z,43.87
2019-05-20T21:01:20.452Z,41.27
2019-05-20T21:03:47.504Z,42.50
2019-05-20T21:06:14.789Z,41.57
2019-05-20T21:08:41.907Z,41.30
2019-05-20T21:11:09.913Z,40.63
2019-05-20T21:13:37.350Z,38.70
2019-05-20T21:16:04.400Z,40.30
2019-05-20T21:18:32.073Z,42.77
2019-05-20T21:20:59.347Z,39.73
2019-05-20T21:23:27.080Z,43.90
2019-05-20T21:25:54.933Z,46.10
2019-05-20T21:28:22.891Z,39.17
2019-05-20T21:30:50.803Z,38.80
2019-05-20T21:33:17.864Z,45.03
2019-05-20T21:35:45.666Z,45.77
2019-05-20T21:38:13.315Z,44.63
2019-05-20T21:40:40.648Z,40.23
2019-05-20T21:43:08.129Z,39.00
2019-05-20T21:45:35.171Z,42.30
2019-05-20T21:48:02.775Z,41.20
2019-05-20T21:50:29.870Z,40.80
2019-05-20T21:52:57.228Z,40.00
2019-05-20T21:55:24.720Z,39.10
2019-05-20T21:57:52.867Z,43.43
2019-05-20T22:00:27.310Z,40.80
2019-05-20T22:02:55.178Z,41.73
2019-05-20T22:05:22.271Z,41.10
2019-05-20T22:07:50.910Z,37.30
2019-05-20T22:10:18.007Z,38.27
2019-05-20T22:12:45.180Z,46.90
2019-05-20T22:15:14.313Z,46.13
2019-05-20T22:17:42.149Z,45.23
2019-05-20T22:20:10.123Z,45.70
2019-05-20T22:22:45.679Z,49.57
2019-05-20T22:25:13.125Z,53.20
2019-05-20T22:27:41.222Z,47.37
2019-05-20T22:30:09.319Z,47.93
2019-05-20T22:32:37.440Z,47.00
2019-05-20T22:35:05.027Z,47.83
2019-05-20T22:37:32.304Z,55.07
2019-05-20T22:39:59.690Z,51.67
2019-05-20T22:42:27.319Z,50.80
2019-05-20T22:44:54.771Z,44.07
2019-05-20T22:47:21.854Z,42.77
2019-05-20T22:49:49.766Z,42.93
2019-05-20T22:52:17.760Z,41.97
2019-05-20T22:54:45.303Z,45.83
2019-05-20T22:57:12.740Z,55.03
2019-05-20T22:59:40.334Z,49.03
2019-05-20T23:02:08.586Z,49.10
2019-05-20T23:04:36.115Z,45.63
2019-05-20T23:07:03.580Z,46.23
2019-05-20T23:09:31.407Z,45.37
2019-05-20T23:11:59.885Z,47.50
2019-05-20T23:14:29.969Z,45.50
2019-05-20T23:16:58.565Z,46.50
2019-05-20T23:19:26.134Z,39.70
2019-05-20T23:21:54.189Z,42.57
2019-05-20T23:24:21.655Z,49.67
2019-05-20T23:26:49.062Z,51.30
2019-05-20T23:29:16.087Z,46.60
2019-05-20T23:31:43.515Z,42.27
2019-05-20T23:34:13.214Z,45.43
2019-05-20T23:36:39.824Z,38.83
2019-05-20T23:39:07.281Z,43.90
2019-05-20T23:41:35.029Z,45.70
2019-05-20T23:44:02.724Z,47.37
2019-05-20T23:46:30.403Z,42.93
2019-05-20T23:48:58.781Z,44.43
2019-05-20T23:51:25.854Z,38.97
2019-05-20T23:53:53.564Z,44.50
2019-05-20T23:56:21.457Z,45.87
2019-05-20T23:58:49.708Z,46.47
